createdAt,value
2023-04-09T00:02:48.486Z,19.80
2023-04-09T00:06:53.058Z,17.40
2023-04-09T00:10:57.440Z,21.83
2023-04-09T00:15:02.992Z,22.50
2023-04-09T00:19:08.695Z,22.70
2023-04-09T00:23:13.090Z,21.60
2023-04-09T00:27:18.056Z,24.10
2023-04-09T00:31:23.028Z,21.27
2023-04-09T00:35:26.471Z,23.83
2023-04-09T00:39:34.076Z,20.27
2023-04-09T00:43:40.220Z,22.07
2023-04-09T00:47:46.492Z,24.63
2023-04-09T00:51:49.789Z,22.57
2023-04-09T00:55:56.711Z,21.60
2023-04-09T01:00:07.064Z,23.97
2023-04-09T01:04:09.976Z,23.33
2023-04-09T01:08:20.616Z,27.10
2023-04-09T01:12:33.720Z,22.60
2023-04-09T01:16:39.023Z,20.50
2023-04-09T01:20:52.057Z,24.27
2023-04-09T01:25:06.605Z,23.97
2023-04-09T01:29:12.978Z,18.93
2023-04-09T01:33:17.607Z,23.57
2023-04-09T01:37:21.363Z,24.00
2023-04-09T01:41:26.418Z,22.30
2023-04-09T01:45:30.576Z,22.77
2023-04-09T01:49:35.042Z,22.73
2023-04-09T01:53:37.919Z,21.90
2023-04-09T01:57:40.973Z,24.37
2023-04-09T02:01:51.656Z,20.80
2023-04-09T02:05:58.672Z,23.67
2023-04-09T02:10:07.735Z,21.70
2023-04-09T02:14:12.981Z,21.53
2023-04-09T02:18:47.882Z,17.03
2023-04-09T02:22:54.062Z,27.37
2023-04-09T02:31:13.774Z,25.57
2023-04-09T02:35:18.002Z,23.57
2023-04-09T02:39:21.766Z,25.23
2023-04-09T02:43:24.564Z,25.40
2023-04-09T02:47:31.982Z,25.03
2023-04-09T02:51:39.437Z,26.27
2023-04-09T02:55:42.190Z,22.97
2023-04-09T02:59:45.894Z,21.53
2023-04-09T03:03:52.706Z,24.90
2023-04-09T03:07:57.164Z,25.40
2023-04-09T03:12:00.213Z,25.37
2023-04-09T03:16:07.593Z,28.57
2023-04-09T03:20:13.102Z,29.20
2023-04-09T03:24:19.364Z,24.77
2023-04-09T03:28:25.057Z,30.73
2023-04-09T03:32:27.868Z,27.83
2023-04-09T03:36:31.263Z,28.03
2023-04-09T03:40:36.717Z,32.97
2023-04-09T03:44:42.187Z,33.47
2023-04-09T03:48:45.837Z,35.57
2023-04-09T03:52:51.737Z,38.03
2023-04-09T03:56:56.281Z,34.17
2023-04-09T04:00:59.173Z,33.30
2023-04-09T04:05:04.489Z,36.93
2023-04-09T04:09:07.828Z,46.27
2023-04-09T04:13:15.238Z,49.77
2023-04-09T04:17:19.252Z,46.30
2023-04-09T04:21:23.514Z,44.87
2023-04-09T04:25:32.546Z,49.63
2023-04-09T04:29:39.614Z,42.57
2023-04-09T04:33:44.327Z,43.30
2023-04-09T04:37:50.689Z,52.07
2023-04-09T04:41:57.313Z,54.87
2023-04-09T04:46:01.715Z,49.27
2023-04-09T04:50:05.708Z,40.10
2023-04-09T04:54:09.959Z,60.97
2023-04-09T04:58:12.791Z,57.23
2023-04-09T05:02:22.293Z,54.33
2023-04-09T05:06:29.706Z,58.37
2023-04-09T05:10:32.840Z,55.00
2023-04-09T05:14:36.427Z,60.53
2023-04-09T05:18:40.707Z,62.50
2023-04-09T05:22:46.416Z,67.87
2023-04-09T05:26:49.481Z,58.53
2023-04-09T05:30:54.547Z,60.37
2023-04-09T05:34:58.741Z,60.93
2023-04-09T05:39:04.114Z,96.30
2023-04-09T05:43:09.971Z,53.33
2023-04-09T05:47:14.263Z,47.60
2023-04-09T05:51:19.175Z,51.37
2023-04-09T05:55:24.613Z,49.73
2023-04-09T05:59:30.088Z,52.30
2023-04-09T06:03:33.173Z,48.43
2023-04-09T06:07:37.544Z,50.93
2023-04-09T06:11:43.511Z,51.83
2023-04-09T06:15:50.616Z,58.57
2023-04-09T06:19:57.398Z,51.17
2023-04-09T06:24:02.399Z,61.50
2023-04-09T06:28:06.910Z,65.13
2023-04-09T06:32:09.694Z,60.87
2023-04-09T06:36:12.558Z,58.53
2023-04-09T06:40:23.391Z,54.40
2023-04-09T06:44:26.317Z,62.20
2023-04-09T06:48:35.026Z,54.87
2023-04-09T06:52:37.834Z,57.23
2023-04-09T06:56:42.182Z,59.27
2023-04-09T07:00:44.996Z,57.17
2023-04-09T07:04:49.966Z,54.97
2023-04-09T07:08:55.927Z,53.73
2023-04-09T07:13:00.132Z,48.83
2023-04-09T07:17:06.827Z,51.77
2023-04-09T07:21:11.454Z,56.03
2023-04-09T07:25:14.265Z,45.50
2023-04-09T07:29:20.667Z,49.70
2023-04-09T07:33:24.858Z,53.17
2023-04-09T07:37:29.689Z,62.47
2023-04-09T07:41:32.696Z,69.87
2023-04-09T07:45:36.857Z,64.67
2023-04-09T07:49:39.905Z,57.13
2023-04-09T07:53:42.734Z,50.30
2023-04-09T07:57:46.203Z,47.30
2023-04-09T08:01:50.760Z,49.43
2023-04-09T08:05:56.877Z,43.72
2023-04-09T08:09:59.665Z,42.93
2023-04-09T08:14:04.566Z,44.55
2023-04-09T08:18:09.936Z,42.93
2023-04-09T08:22:15.619Z,41.83
2023-04-09T08:26:18.406Z,43.08
2023-04-09T08:30:21.223Z,42.80
2023-04-09T08:34:25.359Z,38.38
2023-04-09T08:38:36.285Z,36.67
2023-04-09T08:42:45.918Z,33.38
2023-04-09T08:46:49.083Z,33.25
2023-04-09T08:50:57.697Z,31.25
2023-04-09T08:55:03.125Z,32.88
2023-04-09T08:59:06.253Z,31.77
2023-04-09T09:03:11.119Z,32.20
2023-04-09T09:07:16.126Z,28.40
2023-04-09T09:11:26.871Z,30.38
2023-04-09T09:15:31.013Z,34.35
2023-04-09T09:19:35.215Z,31.73
2023-04-09T09:23:39.606Z,33.22
2023-04-09T09:27:43.707Z,34.97
2023-04-09T09:31:51.334Z,31.95
2023-04-09T09:36:00.400Z,31.00
2023-04-09T09:40:05.460Z,29.48
2023-04-09T09:44:09.222Z,32.55
2023-04-09T09:48:12.905Z,36.75
2023-04-09T09:52:17.717Z,35.63
2023-04-09T09:56:32.337Z,34.33
2023-04-09T10:00:38.768Z,32.65
2023-04-09T10:04:41.803Z,27.58
2023-04-09T10:08:49.726Z,29.83
2023-04-09T10:12:57.607Z,26.95
2023-04-09T10:17:01.032Z,28.48
2023-04-09T10:21:10.481Z,33.50
2023-04-09T10:25:13.589Z,27.83
2023-04-09T10:29:18.318Z,30.95
2023-04-09T10:33:30.207Z,25.83
2023-04-09T10:37:33.050Z,24.52
2023-04-09T10:41:37.908Z,26.35
2023-04-09T10:45:42.961Z,22.48
2023-04-09T10:49:53.319Z,22.63
2023-04-09T10:53:58.982Z,23.42
2023-04-09T10:58:13.862Z,22.17
2023-04-09T11:03:09.355Z,22.08
2023-04-09T11:07:16.936Z,21.77
2023-04-09T11:11:26.521Z,22.30
2023-04-09T11:15:32.409Z,21.05
2023-04-09T11:19:35.458Z,23.70
2023-04-09T11:23:39.756Z,23.60
2023-04-09T11:27:47.526Z,28.27
2023-04-09T11:31:50.393Z,26.92
2023-04-09T11:35:54.724Z,22.92
2023-04-09T11:40:00.603Z,21.02
2023-04-09T11:44:07.307Z,25.27
2023-04-09T11:48:13.505Z,20.77
2023-04-09T11:52:18.286Z,21.35
2023-04-09T11:56:22.740Z,20.95
2023-04-09T12:00:26.179Z,19.15
2023-04-09T12:04:29.103Z,20.50
2023-04-09T12:08:35.864Z,20.52
2023-04-09T12:12:47.335Z,19.42
2023-04-09T12:16:53.325Z,20.20
2023-04-09T12:21:03.795Z,20.02
2023-04-09T12:25:07.412Z,20.35
2023-04-09T12:29:13.722Z,18.13
2023-04-09T12:33:19.244Z,19.00
2023-04-09T12:37:22.785Z,19.15
2023-04-09T12:41:36.792Z,18.48
2023-04-09T12:45:41.258Z,19.35
2023-04-09T12:49:46.753Z,18.85
2023-04-09T12:53:49.601Z,16.00
2023-04-09T12:57:57.702Z,16.67
2023-04-09T13:02:02.423Z,16.95
2023-04-09T13:06:05.779Z,15.68
2023-04-09T13:10:19.735Z,16.90
2023-04-09T13:14:22.560Z,15.55
2023-04-09T13:18:29.345Z,16.80
2023-04-09T13:22:32.728Z,14.73
2023-04-09T13:26:35.746Z,13.77
2023-04-09T13:30:38.916Z,14.05
2023-04-09T13:34:43.291Z,13.18
2023-04-09T13:38:46.340Z,14.10
2023-04-09T13:42:49.412Z,14.88
2023-04-09T13:46:55.031Z,14.70
2023-04-09T13:50:59.514Z,17.15
2023-04-09T13:55:03.893Z,16.17
2023-04-09T13:59:07.186Z,16.05
2023-04-09T14:03:11.215Z,18.20
2023-04-09T14:07:15.436Z,15.57
2023-04-09T14:11:22.528Z,18.98
2023-04-09T14:15:25.642Z,22.85
2023-04-09T14:19:30.864Z,10.43
2023-04-09T14:23:35.303Z,10.27
2023-04-09T14:27:39.005Z,7.65
2023-04-09T14:31:42.812Z,7.72
2023-04-09T14:35:45.845Z,9.10
2023-04-09T14:39:52.759Z,13.02
2023-04-09T14:43:58.374Z,12.02
2023-04-09T14:48:04.252Z,15.48
2023-04-09T14:52:10.786Z,17.35
2023-04-09T14:56:19.052Z,17.30
2023-04-09T15:00:22.509Z,17.25
2023-04-09T15:04:29.424Z,13.88
2023-04-09T15:08:33.304Z,8.77
2023-04-09T15:12:41.006Z,8.25
2023-04-09T15:16:46.772Z,7.90
2023-04-09T15:20:50.935Z,14.23
2023-04-09T15:24:54.741Z,13.20
2023-04-09T15:29:03.991Z,14.38
2023-04-09T15:33:07.343Z,15.82
2023-04-09T15:37:10.414Z,16.88
2023-04-09T15:41:18.022Z,14.38
2023-04-09T15:45:26.866Z,15.07
2023-04-09T15:49:30.246Z,14.27
2023-04-09T15:53:33.737Z,14.30
2023-04-09T15:57:40.744Z,11.70
2023-04-09T16:01:54.232Z,13.57
2023-04-09T16:05:57.143Z,10.20
2023-04-09T16:10:06.791Z,10.15
2023-04-09T16:14:10.890Z,10.63
2023-04-09T16:18:20.154Z,9.82
2023-04-09T16:22:24.565Z,9.48
2023-04-09T16:30:33.305Z,9.65
2023-04-09T16:34:38.316Z,7.15
2023-04-09T16:38:44.095Z,7.28
2023-04-09T16:42:48.170Z,8.15
2023-04-09T16:46:54.153Z,9.15
2023-04-09T16:50:58.319Z,6.38
2023-04-09T16:55:04.410Z,7.35
2023-04-09T16:59:07.263Z,6.22
2023-04-09T17:03:10.550Z,7.75
2023-04-09T17:07:15.890Z,6.30
2023-04-09T17:11:18.871Z,6.10
2023-04-09T17:15:22.678Z,6.75
2023-04-09T17:19:27.659Z,7.68
2023-04-09T17:23:32.134Z,9.55
2023-04-09T17:27:34.907Z,7.93
2023-04-09T17:31:47.792Z,12.93
2023-04-09T17:35:50.784Z,7.60
2023-04-09T17:39:58.147Z,8.50
2023-04-09T17:44:00.924Z,9.88
2023-04-09T17:48:07.387Z,9.52
2023-04-09T17:52:10.257Z,10.02
2023-04-09T17:56:17.566Z,10.00
2023-04-09T18:00:25.144Z,49.35
2023-04-09T18:04:28.183Z,9.32
2023-04-09T18:08:33.406Z,10.95
2023-04-09T18:12:39.687Z,14.10
2023-04-09T18:16:42.523Z,12.10
2023-04-09T18:20:49.492Z,17.15
2023-04-09T18:24:52.671Z,16.40
2023-04-09T18:29:01.410Z,15.15
2023-04-09T18:33:08.161Z,15.55
2023-04-09T18:37:15.629Z,17.80
2023-04-09T18:41:23.294Z,20.63
2023-04-09T18:45:27.682Z,20.75
2023-04-09T18:49:30.461Z,23.33
2023-04-09T18:53:33.347Z,21.33
2023-04-09T18:57:36.239Z,24.83
2023-04-09T19:01:43.744Z,24.53
2023-04-09T19:05:47.151Z,24.97
2023-04-09T19:09:49.940Z,24.63
2023-04-09T19:13:53.465Z,24.90
2023-04-09T19:17:59.189Z,22.70
2023-04-09T19:22:02.186Z,25.53
2023-04-09T19:26:07.945Z,29.73
2023-04-09T19:30:14.230Z,27.27
2023-04-09T19:34:19.927Z,26.13
2023-04-09T19:38:25.423Z,28.20
2023-04-09T19:42:29.251Z,29.67
2023-04-09T19:46:34.827Z,26.57
2023-04-09T19:50:43.322Z,28.03
2023-04-09T19:54:46.491Z,30.07
2023-04-09T19:58:49.271Z,32.33
2023-04-09T20:02:52.696Z,31.83
2023-04-09T20:06:58.521Z,31.20
2023-04-09T20:11:01.303Z,28.73
2023-04-09T20:15:04.094Z,27.53
2023-04-09T20:19:07.890Z,25.90
2023-04-09T20:23:13.338Z,28.70
2023-04-09T20:27:16.450Z,26.33
2023-04-09T20:31:20.059Z,30.70
2023-04-09T20:35:22.881Z,30.80
2023-04-09T20:39:27.934Z,28.33
2023-04-09T20:43:30.968Z,25.73
2023-04-09T20:47:33.731Z,25.93
2023-04-09T20:51:36.941Z,30.83
2023-04-09T20:55:41.857Z,26.07
2023-04-09T20:59:46.957Z,26.90
2023-04-09T21:03:52.277Z,26.73
2023-04-09T21:07:59.933Z,25.60
2023-04-09T21:12:07.301Z,24.47
2023-04-09T21:16:17.732Z,29.97
2023-04-09T21:20:22.139Z,27.93
2023-04-09T21:24:24.953Z,25.53
2023-04-09T21:28:31.932Z,27.87
2023-04-09T21:32:34.963Z,31.23
2023-04-09T21:36:39.465Z,32.40
2023-04-09T21:40:42.285Z,27.60
2023-04-09T21:44:46.820Z,25.13
2023-04-09T21:48:53.101Z,25.93
2023-04-09T21:52:56.749Z,27.43
2023-04-09T21:56:59.544Z,25.77
2023-04-09T22:01:06.222Z,24.20
2023-04-09T22:05:15.640Z,29.53
2023-04-09T22:09:21.522Z,27.33
2023-04-09T22:13:24.309Z,31.47
2023-04-09T22:17:33.576Z,26.50
2023-04-09T22:21:36.407Z,23.80
2023-04-09T22:25:39.250Z,29.33
2023-04-09T22:29:45.367Z,31.70
2023-04-09T22:33:52.628Z,29.83
2023-04-09T22:37:56.367Z,29.07
2023-04-09T22:41:59.924Z,25.80
2023-04-09T22:46:03.353Z,24.80
2023-04-09T22:50:09.252Z,24.87
2023-04-09T22:54:13.580Z,29.00
2023-04-09T22:58:16.375Z,25.17
2023-04-09T23:02:20.989Z,23.47
2023-04-09T23:06:25.392Z,27.83
2023-04-09T23:10:28.599Z,28.43
2023-04-09T23:14:34.519Z,25.80
2023-04-09T23:18:38.823Z,25.53
2023-04-09T23:22:44.236Z,26.70
2023-04-09T23:26:47.294Z,27.57
2023-04-09T23:30:50.361Z,24.40
2023-04-09T23:34:53.418Z,24.87
2023-04-09T23:39:00.499Z,28.13
2023-04-09T23:43:03.553Z,27.23
2023-04-09T23:47:06.801Z,28.60
2023-04-09T23:51:10.562Z,24.07
2023-04-09T23:55:15.440Z,28.80
2023-04-09T23:59:18.335Z,24.63
